createdAt,value
2019-05-10T00:00:10.701Z,97529.73
2019-05-10T00:02:57.365Z,97526.81
2019-05-10T00:05:44.124Z,97526.59
2019-05-10T00:08:30.647Z,97526.30
2019-05-10T00:11:01.288Z,97529.48
2019-05-10T00:13:31.484Z,97526.34
2019-05-10T00:16:00.230Z,97532.11
2019-05-10T00:18:28.719Z,97535.77
2019-05-10T00:20:57.256Z,97537.34
2019-05-10T00:23:25.747Z,97547.11
2019-05-10T00:25:54.283Z,97545.54
2019-05-10T00:28:22.771Z,97552.92
2019-05-10T00:30:51.240Z,97552.38
2019-05-10T00:33:19.738Z,97550.80
2019-05-10T00:35:48.278Z,97555.25
2019-05-10T00:38:16.766Z,97552.05
2019-05-10T00:40:45.239Z,97552.56
2019-05-10T00:43:13.740Z,97549.38
2019-05-10T00:45:42.195Z,97558.55
2019-05-10T00:48:10.687Z,97555.42
2019-05-10T00:50:39.150Z,97554.10
2019-05-10T00:53:07.645Z,97560.34
2019-05-10T00:55:36.112Z,97555.91
2019-05-10T00:58:04.780Z,97564.06
2019-05-10T01:00:33.245Z,97565.89
2019-05-10T01:03:01.712Z,97571.45
2019-05-10T01:05:30.212Z,97568.25
2019-05-10T01:07:58.729Z,97570.03
2019-05-10T01:10:27.236Z,97566.33
2019-05-10T01:12:55.709Z,97568.22
2019-05-10T01:15:24.270Z,97577.83
2019-05-10T01:17:52.744Z,97574.17
2019-05-10T01:20:21.302Z,97575.77
2019-05-10T01:22:49.770Z,97577.31
2019-05-10T01:25:33.636Z,97568.86
2019-05-10T01:27:48.452Z,97575.13
2019-05-10T01:30:18.077Z,97579.63
2019-05-10T01:32:46.615Z,97584.25
2019-05-10T01:35:15.181Z,97587.89
2019-05-10T01:37:43.646Z,97587.67
2019-05-10T01:40:12.194Z,97591.41
2019-05-10T01:42:40.658Z,97587.11
2019-05-10T01:45:09.393Z,97592.14
2019-05-10T01:47:37.854Z,97583.98
2019-05-10T01:50:07.381Z,97588.95
2019-05-10T01:52:35.853Z,97582.79
2019-05-10T01:55:06.579Z,97587.48
2019-05-10T01:57:35.047Z,97588.75
2019-05-10T02:00:05.214Z,97592.36
2019-05-10T02:02:33.768Z,97601.31
2019-05-10T02:05:02.432Z,97601.66
2019-05-10T02:07:30.886Z,97609.59
2019-05-10T02:09:59.385Z,97607.13
2019-05-10T02:12:27.854Z,97611.53
2019-05-10T02:14:56.344Z,97616.37
2019-05-10T02:17:24.887Z,97621.01
2019-05-10T02:19:53.380Z,97627.94
2019-05-10T02:22:21.851Z,97626.61
2019-05-10T02:24:50.348Z,97628.03
2019-05-10T02:27:18.813Z,97627.22
2019-05-10T02:29:47.375Z,97625.72
2019-05-10T02:32:15.841Z,97630.81
2019-05-10T02:34:44.338Z,97637.22
2019-05-10T02:37:12.799Z,97642.39
2019-05-10T02:39:41.300Z,97638.27
2019-05-10T02:42:09.765Z,97640.18
2019-05-10T02:44:38.259Z,97641.64
2019-05-10T02:47:06.737Z,97640.81
2019-05-10T02:49:35.223Z,97635.00
2019-05-10T02:52:04.021Z,97639.38
2019-05-10T02:54:32.563Z,97642.80
2019-05-10T02:57:03.298Z,97646.98
2019-05-10T02:59:33.301Z,97653.07
2019-05-10T03:02:05.272Z,97655.38
2019-05-10T03:04:36.321Z,97663.18
2019-05-10T03:07:06.191Z,97662.91
2019-05-10T03:09:35.346Z,97668.70
2019-05-10T03:12:06.891Z,97671.12
2019-05-10T03:14:40.508Z,97672.97
2019-05-10T03:17:09.563Z,97675.75
2019-05-10T03:19:38.555Z,97684.38
2019-05-10T03:22:07.183Z,97683.09
2019-05-10T03:24:35.652Z,97692.83
2019-05-10T03:27:04.217Z,97695.20
2019-05-10T03:29:32.924Z,97698.63
2019-05-10T03:32:01.717Z,97701.27
2019-05-10T03:34:30.334Z,97700.81
2019-05-10T03:36:58.823Z,97699.63
2019-05-10T03:39:27.655Z,97710.77
2019-05-10T03:41:56.150Z,97710.28
2019-05-10T03:44:24.625Z,97709.83
2019-05-10T03:46:53.108Z,97710.39
2019-05-10T03:49:21.576Z,97717.23
2019-05-10T03:51:50.070Z,97715.22
2019-05-10T03:54:18.535Z,97719.22
2019-05-10T03:56:47.027Z,97720.98
2019-05-10T03:59:15.493Z,97725.52
2019-05-10T04:01:43.986Z,97727.55
2019-05-10T04:04:12.450Z,97731.08
2019-05-10T04:06:40.950Z,97736.17
2019-05-10T04:09:09.487Z,97735.98
2019-05-10T04:11:37.980Z,97738.47
2019-05-10T04:14:06.441Z,97743.53
2019-05-10T04:16:34.935Z,97750.97
2019-05-10T04:19:03.401Z,97742.44
2019-05-10T04:21:31.922Z,97747.56
2019-05-10T04:24:00.367Z,97747.86
2019-05-10T04:26:28.863Z,97753.45
2019-05-10T04:28:57.329Z,97747.93
2019-05-10T04:31:25.819Z,97758.30
2019-05-10T04:33:54.287Z,97759.39
2019-05-10T04:36:22.774Z,97765.09
2019-05-10T04:38:51.251Z,97761.69
2019-05-10T04:41:19.736Z,97762.50
2019-05-10T04:43:48.198Z,97764.55
2019-05-10T04:46:16.699Z,97766.52
2019-05-10T04:48:45.167Z,97765.43
2019-05-10T04:51:13.655Z,97771.62
2019-05-10T04:53:42.123Z,97771.66
2019-05-10T04:56:10.618Z,97772.16
2019-05-10T04:58:39.161Z,97778.42
2019-05-10T05:01:07.717Z,97773.31
2019-05-10T05:03:36.187Z,97777.26
2019-05-10T05:06:05.076Z,97778.34
2019-05-10T05:08:33.559Z,97778.09
2019-05-10T05:11:02.094Z,97785.97
2019-05-10T05:13:30.590Z,97792.47
2019-05-10T05:15:59.061Z,97790.54
2019-05-10T05:18:27.548Z,97794.30
2019-05-10T05:20:56.019Z,97802.94
2019-05-10T05:23:24.519Z,97795.83
2019-05-10T05:25:53.044Z,97805.34
2019-05-10T05:28:23.136Z,97808.95
2019-05-10T05:30:51.731Z,97809.84
2019-05-10T05:33:20.227Z,97823.06
2019-05-10T05:35:48.688Z,97819.34
2019-05-10T05:38:17.184Z,97820.95
2019-05-10T05:40:45.650Z,97826.02
2019-05-10T05:43:14.149Z,97828.37
2019-05-10T05:45:42.616Z,97831.45
2019-05-10T05:48:11.105Z,97831.34
2019-05-10T05:50:39.574Z,97833.91
2019-05-10T05:53:08.064Z,97834.52
2019-05-10T05:55:36.546Z,97828.18
2019-05-10T05:58:07.121Z,97833.88
2019-05-10T06:00:37.947Z,97833.23
2019-05-10T06:03:05.442Z,97831.92
2019-05-10T06:05:37.111Z,97841.12
2019-05-10T06:08:04.213Z,97842.71
2019-05-10T06:10:32.658Z,97844.77
2019-05-10T06:13:01.217Z,97844.16
2019-05-10T06:15:31.564Z,97852.34
2019-05-10T06:18:03.602Z,97850.31
2019-05-10T06:20:30.159Z,97857.10
2019-05-10T06:23:06.602Z,97854.77
2019-05-10T06:25:39.234Z,97853.92
2019-05-10T06:27:59.052Z,97859.62
2019-05-10T06:30:27.520Z,97855.73
2019-05-10T06:33:00.698Z,97863.65
2019-05-10T06:35:26.207Z,97867.06
2019-05-10T06:37:54.697Z,97869.56
2019-05-10T06:40:32.612Z,97871.41
2019-05-10T06:42:53.389Z,97872.40
2019-05-10T06:45:23.021Z,97877.04
2019-05-10T06:47:53.419Z,97877.94
2019-05-10T06:50:28.864Z,97884.00
2019-05-10T06:52:52.514Z,97882.87
2019-05-10T06:55:20.935Z,97882.45
2019-05-10T06:57:50.414Z,97888.83
2019-05-10T07:00:19.631Z,97899.28
2019-05-10T07:02:48.099Z,97896.55
2019-05-10T07:05:16.589Z,97901.34
2019-05-10T07:07:45.662Z,97901.47
2019-05-10T07:10:18.971Z,97901.17
2019-05-10T07:12:45.453Z,97908.27
2019-05-10T07:15:14.218Z,97906.80
2019-05-10T07:17:46.962Z,97902.55
2019-05-10T07:20:12.970Z,97907.39
2019-05-10T07:22:41.436Z,97909.50
2019-05-10T07:25:10.014Z,97915.19
2019-05-10T07:27:38.884Z,97917.42
2019-05-10T07:30:07.775Z,97919.78
2019-05-10T07:32:36.270Z,97922.20
2019-05-10T07:35:06.670Z,97921.41
2019-05-10T07:37:35.579Z,97925.77
2019-05-10T07:40:08.021Z,97928.52
2019-05-10T07:42:39.718Z,97926.77
2019-05-10T07:45:09.749Z,97927.33
2019-05-10T07:47:38.221Z,97931.25
2019-05-10T07:50:09.654Z,97931.27
2019-05-10T07:52:43.667Z,97934.23
2019-05-10T07:55:10.405Z,97935.34
2019-05-10T07:57:38.238Z,97937.67
2019-05-10T08:00:07.943Z,97939.53
2019-05-10T08:02:36.468Z,97942.50
2019-05-10T08:05:11.005Z,97946.45
2019-05-10T08:07:38.691Z,97949.03
2019-05-10T08:10:08.788Z,97951.91
2019-05-10T08:12:41.404Z,97951.44
2019-05-10T08:15:09.496Z,97952.16
2019-05-10T08:17:43.287Z,97954.52
2019-05-10T08:20:14.599Z,97950.55
2019-05-10T08:22:41.322Z,97954.69
2019-05-10T08:25:09.232Z,97955.03
2019-05-10T08:27:43.932Z,97958.56
2019-05-10T08:30:24.801Z,97963.06
2019-05-10T08:32:38.698Z,97964.77
2019-05-10T08:35:15.934Z,97972.95
2019-05-10T08:37:38.179Z,97961.84
2019-05-10T08:40:06.851Z,97962.91
2019-05-10T08:42:44.208Z,97971.63
2019-05-10T08:45:08.906Z,97974.27
2019-05-10T08:47:37.323Z,97978.79
2019-05-10T08:50:22.374Z,97978.53
2019-05-10T08:52:36.329Z,97974.08
2019-05-10T08:55:07.159Z,97983.31
2019-05-10T08:57:43.422Z,97977.46
2019-05-10T09:00:09.085Z,97985.95
2019-05-10T09:02:37.676Z,97986.99
2019-05-10T09:05:06.309Z,97982.53
2019-05-10T09:07:38.850Z,97987.54
2019-05-10T09:10:09.586Z,97988.86
2019-05-10T09:12:44.218Z,97989.13
2019-05-10T09:15:10.345Z,98002.07
2019-05-10T09:17:37.725Z,98001.80
2019-05-10T09:20:11.945Z,97998.09
2019-05-10T09:22:38.870Z,97998.12
2019-05-10T09:25:07.371Z,98017.59
2019-05-10T09:27:35.834Z,98018.64
2019-05-10T09:30:08.106Z,98022.86
2019-05-10T09:32:35.240Z,98028.01
2019-05-10T09:35:07.863Z,98025.03
2019-05-10T09:37:34.803Z,98022.95
2019-05-10T09:40:09.753Z,98023.03
2019-05-10T09:42:39.981Z,98022.34
2019-05-10T09:45:09.667Z,98022.69
2019-05-10T09:47:37.164Z,98017.92
2019-05-10T09:50:06.699Z,98027.17
2019-05-10T09:52:35.164Z,98026.00
2019-05-10T09:55:10.190Z,98023.38
2019-05-10T09:57:34.629Z,98030.44
2019-05-10T10:00:04.127Z,98030.63
2019-05-10T10:02:33.860Z,98026.39
2019-05-10T10:05:02.688Z,98027.30
2019-05-10T10:07:33.464Z,98027.53
2019-05-10T10:10:01.367Z,98034.97
2019-05-10T10:12:29.877Z,98035.55
2019-05-10T10:14:58.351Z,98035.77
2019-05-10T10:17:27.498Z,98036.61
2019-05-10T10:19:57.883Z,98037.25
2019-05-10T10:22:27.831Z,98039.80
2019-05-10T10:25:00.443Z,98032.34
2019-05-10T10:27:34.336Z,98050.98
2019-05-10T10:29:57.399Z,98039.61
2019-05-10T10:32:31.345Z,98045.62
2019-05-10T10:34:57.807Z,98042.83
2019-05-10T10:37:28.990Z,98035.74
2019-05-10T10:40:00.731Z,98039.95
2019-05-10T10:42:26.845Z,98043.55
2019-05-10T10:44:55.314Z,98055.16
2019-05-10T10:47:30.458Z,98051.67
2019-05-10T10:49:53.996Z,98060.11
2019-05-10T10:52:22.492Z,98059.96
2019-05-10T10:54:50.958Z,98058.28
2019-05-10T10:57:19.444Z,98053.31
2019-05-10T10:59:47.919Z,98052.18
2019-05-10T11:02:32.029Z,98063.08
2019-05-10T11:04:48.823Z,98059.36
2019-05-10T11:07:16.812Z,98058.77
2019-05-10T11:09:45.279Z,98065.02
2019-05-10T11:12:14.618Z,98061.31
2019-05-10T11:14:45.581Z,98053.70
2019-05-10T11:17:14.162Z,98050.00
2019-05-10T11:19:42.631Z,98066.09
2019-05-10T11:22:11.121Z,98063.64
2019-05-10T11:24:39.593Z,98070.77
2019-05-10T11:27:12.993Z,98068.66
2019-05-10T11:29:38.274Z,98073.75
2019-05-10T11:32:15.890Z,98070.31
2019-05-10T11:34:37.950Z,98068.79
2019-05-10T11:37:07.500Z,98060.90
2019-05-10T11:39:42.126Z,98068.34
2019-05-10T11:42:07.319Z,98069.34
2019-05-10T11:47:03.578Z,98070.20
2019-05-10T11:49:32.051Z,98083.73
2019-05-10T11:52:01.674Z,98076.13
2019-05-10T11:54:31.913Z,98086.94
2019-05-10T11:57:06.118Z,98080.42
2019-05-10T11:59:33.770Z,98081.64
2019-05-10T12:02:02.872Z,98084.84
2019-05-10T12:04:38.850Z,98082.92
2019-05-10T12:07:05.887Z,98088.73
2019-05-10T12:09:31.864Z,98092.17
2019-05-10T12:12:03.438Z,98085.81
2019-05-10T12:14:30.504Z,98096.00
2019-05-10T12:17:05.640Z,98094.80
2019-05-10T12:19:36.680Z,98093.06
2019-05-10T12:22:03.572Z,98102.42
2019-05-10T12:24:45.312Z,98096.72
2019-05-10T12:27:17.256Z,98095.22
2019-05-10T12:29:31.655Z,98100.66
2019-05-10T12:32:00.225Z,98109.05
2019-05-10T12:34:30.987Z,98102.83
2019-05-10T12:37:03.876Z,98115.19
2019-05-10T12:39:30.998Z,98120.80
2019-05-10T12:41:59.458Z,98131.00
2019-05-10T12:44:27.951Z,98133.98
2019-05-10T12:46:56.430Z,98135.05
2019-05-10T12:49:24.919Z,98130.02
2019-05-10T12:51:53.389Z,98132.05
2019-05-10T12:54:23.945Z,98127.05
2019-05-10T12:56:52.082Z,98134.31
2019-05-10T12:59:20.577Z,98143.52
2019-05-10T13:01:49.050Z,98133.17
2019-05-10T13:04:18.331Z,98134.06
2019-05-10T13:06:46.888Z,98133.17
2019-05-10T13:09:15.386Z,98129.78
2019-05-10T13:11:43.880Z,98139.28
2019-05-10T13:14:13.299Z,98136.48
2019-05-10T13:16:41.769Z,98139.52
2019-05-10T13:19:14.194Z,98143.31
2019-05-10T13:21:40.533Z,98146.48
2019-05-10T13:24:09.089Z,98154.64
2019-05-10T13:26:37.555Z,98150.73
2019-05-10T13:29:07.841Z,98165.08
2019-05-10T13:31:42.097Z,98159.98
2019-05-10T13:34:06.450Z,98158.21
2019-05-10T13:36:37.043Z,98156.09
2019-05-10T13:39:06.078Z,98163.18
2019-05-10T13:41:34.543Z,98163.25
2019-05-10T13:44:04.879Z,98169.46
2019-05-10T13:46:33.467Z,98163.25
2019-05-10T13:49:02.003Z,98163.91
2019-05-10T13:51:30.429Z,98167.29
2019-05-10T13:54:00.871Z,98172.89
2019-05-10T13:56:29.110Z,98176.30
2019-05-10T13:58:57.702Z,98173.91
2019-05-10T14:01:26.502Z,98182.06
2019-05-10T14:04:01.217Z,98182.30
2019-05-10T14:06:25.178Z,98188.92
2019-05-10T14:08:53.680Z,98177.33
2019-05-10T14:11:22.145Z,98191.27
2019-05-10T14:13:50.711Z,98195.83
2019-05-10T14:16:22.042Z,98185.52
2019-05-10T14:18:49.368Z,98192.02
2019-05-10T14:21:17.865Z,98185.37
2019-05-10T14:23:46.336Z,98185.34
2019-05-10T14:26:15.878Z,98183.41
2019-05-10T14:28:47.252Z,98183.29
2019-05-10T14:31:15.236Z,98197.28
2019-05-10T14:33:49.713Z,98203.12
2019-05-10T14:36:13.909Z,98198.66
2019-05-10T14:38:47.254Z,98196.33
2019-05-10T14:41:13.382Z,98209.67
2019-05-10T14:43:41.975Z,98205.33
2019-05-10T14:46:13.798Z,98206.58
2019-05-10T14:48:40.683Z,98212.80
2019-05-10T14:51:11.655Z,98205.06
2019-05-10T14:53:39.359Z,98210.09
2019-05-10T14:56:14.037Z,98212.36
2019-05-10T14:58:38.039Z,98218.43
2019-05-10T15:01:06.536Z,98210.11
2019-05-10T15:03:44.383Z,98213.45
2019-05-10T15:06:05.303Z,98228.62
2019-05-10T15:08:33.777Z,98224.38
2019-05-10T15:11:02.301Z,98222.68
2019-05-10T15:13:34.573Z,98221.38
2019-05-10T15:16:00.987Z,98218.17
2019-05-10T15:18:29.465Z,98219.94
2019-05-10T15:20:57.978Z,98217.84
2019-05-10T15:23:26.445Z,98224.92
2019-05-10T15:25:57.595Z,98231.02
2019-05-10T15:28:25.145Z,98224.63
2019-05-10T15:30:53.636Z,98229.59
2019-05-10T15:33:22.116Z,98236.88
2019-05-10T15:35:52.053Z,98232.39
2019-05-10T15:38:20.835Z,98233.55
2019-05-10T15:40:49.342Z,98229.47
2019-05-10T15:43:18.959Z,98235.22
2019-05-10T15:45:52.658Z,98240.53
2019-05-10T15:48:17.795Z,98237.57
2019-05-10T15:50:46.369Z,98246.27
2019-05-10T15:53:19.345Z,98245.43
2019-05-10T15:55:45.093Z,98241.02
2019-05-10T15:58:13.593Z,98243.17
2019-05-10T16:00:42.047Z,98247.33
2019-05-10T16:03:10.550Z,98245.45
2019-05-10T16:05:43.512Z,98248.87
2019-05-10T16:08:09.249Z,98253.58
2019-05-10T16:10:39.347Z,98248.91
2019-05-10T16:13:07.949Z,98251.60
2019-05-10T16:15:36.415Z,98244.84
2019-05-10T16:18:05.143Z,98247.07
2019-05-10T16:20:37.293Z,98255.55
2019-05-10T16:23:08.582Z,98255.70
2019-05-10T16:25:41.946Z,98258.69
2019-05-10T16:28:04.376Z,98260.84
2019-05-10T16:30:36.239Z,98264.67
2019-05-10T16:33:03.091Z,98261.50
2019-05-10T16:35:38.848Z,98265.15
2019-05-10T16:38:01.787Z,98270.16
2019-05-10T16:40:30.264Z,98268.39
2019-05-10T16:42:58.767Z,98264.80
2019-05-10T16:45:27.317Z,98266.09
2019-05-10T16:47:55.811Z,98262.32
2019-05-10T16:50:25.991Z,98267.06
2019-05-10T16:52:59.319Z,98274.61
2019-05-10T16:55:24.715Z,98276.50
2019-05-10T16:57:53.218Z,98275.35
2019-05-10T17:00:22.636Z,98277.25
2019-05-10T17:02:51.143Z,98271.81
2019-05-10T17:05:19.614Z,98279.52
2019-05-10T17:07:48.109Z,98275.58
2019-05-10T17:10:16.648Z,98275.89
2019-05-10T17:12:45.155Z,98291.31
2019-05-10T17:15:13.709Z,98279.90
2019-05-10T17:17:44.878Z,98290.70
2019-05-10T17:20:15.779Z,98291.62
2019-05-10T17:22:42.971Z,98296.48
2019-05-10T17:25:11.587Z,98294.31
2019-05-10T17:27:40.092Z,98297.78
2019-05-10T17:30:09.107Z,98299.20
2019-05-10T17:32:37.613Z,98295.49
2019-05-10T17:35:08.106Z,98293.00
2019-05-10T17:37:37.493Z,98302.12
2019-05-10T17:40:10.139Z,98305.23
2019-05-10T17:42:41.254Z,98303.92
2019-05-10T17:45:10.338Z,98300.03
2019-05-10T17:47:38.916Z,98312.11
2019-05-10T17:50:08.040Z,98316.37
2019-05-10T17:52:36.539Z,98314.23
2019-05-10T17:55:10.965Z,98321.60
2019-05-10T17:57:38.505Z,98317.32
2019-05-10T18:00:10.923Z,98326.52
2019-05-10T18:02:39.432Z,98332.14
2019-05-10T18:05:08.639Z,98346.05
2019-05-10T18:07:37.346Z,98346.22
2019-05-10T18:10:06.744Z,98344.78
2019-05-10T18:12:35.846Z,98352.40
2019-05-10T18:15:06.893Z,98362.02
2019-05-10T18:17:36.981Z,98364.33
2019-05-10T18:20:06.729Z,98364.95
2019-05-10T18:22:43.704Z,98366.21
2019-05-10T18:25:05.948Z,98369.45
2019-05-10T18:27:34.417Z,98368.15
2019-05-10T18:30:02.986Z,98374.52
2019-05-10T18:32:35.700Z,98385.41
2019-05-10T18:35:01.673Z,98380.67
2019-05-10T18:37:30.147Z,98384.53
2019-05-10T18:39:58.658Z,98380.06
2019-05-10T18:42:27.943Z,98382.86
2019-05-10T18:44:56.596Z,98390.39
2019-05-10T18:47:25.074Z,98406.20
2019-05-10T18:49:53.585Z,98403.30
2019-05-10T18:52:22.049Z,98400.79
2019-05-10T18:54:50.551Z,98410.92
2019-05-10T18:57:19.653Z,98402.94
2019-05-10T18:59:48.212Z,98415.45
2019-05-10T19:02:17.879Z,98421.23
2019-05-10T19:04:52.203Z,98422.55
2019-05-10T19:07:17.478Z,98428.58
2019-05-10T19:09:45.984Z,98429.47
2019-05-10T19:12:18.861Z,98436.47
2019-05-10T19:14:44.679Z,98445.11
2019-05-10T19:17:13.180Z,98447.16
2019-05-10T19:19:42.365Z,98450.14
2019-05-10T19:22:11.011Z,98452.69
2019-05-10T19:24:39.513Z,98457.99
2019-05-10T19:27:09.379Z,98450.69
2019-05-10T19:29:45.379Z,98463.70
2019-05-10T19:32:11.327Z,98460.12
2019-05-10T19:34:38.370Z,98458.18
2019-05-10T19:37:06.906Z,98456.27
2019-05-10T19:39:35.411Z,98457.91
2019-05-10T19:42:06.171Z,98459.72
2019-05-10T19:44:34.744Z,98457.36
2019-05-10T19:47:04.501Z,98458.08
2019-05-10T19:49:32.988Z,98459.77
2019-05-10T19:52:01.461Z,98459.99
2019-05-10T19:54:29.952Z,98463.98
2019-05-10T19:56:58.426Z,98470.73
2019-05-10T19:59:26.941Z,98464.75
2019-05-10T20:01:55.407Z,98471.55
2019-05-10T20:04:23.898Z,98473.73
2019-05-10T20:06:52.387Z,98472.28
2019-05-10T20:09:20.858Z,98472.88
2019-05-10T20:11:49.365Z,98476.77
2019-05-10T20:14:18.059Z,98478.93
2019-05-10T20:16:52.665Z,98477.72
2019-05-10T20:19:16.757Z,98472.67
2019-05-10T20:21:45.331Z,98480.78
2019-05-10T20:24:13.810Z,98470.89
2019-05-10T20:26:42.324Z,98469.92
2019-05-10T20:29:10.869Z,98472.86
2019-05-10T20:31:39.363Z,98477.23
2019-05-10T20:34:07.837Z,98478.46
2019-05-10T20:36:36.331Z,98475.66
2019-05-10T20:39:06.725Z,98480.47
2019-05-10T20:41:35.259Z,98475.89
2019-05-10T20:44:03.773Z,98478.28
2019-05-10T20:46:32.276Z,98474.82
2019-05-10T20:49:00.744Z,98473.11
2019-05-10T20:51:29.242Z,98467.15
2019-05-10T20:53:58.191Z,98476.89
2019-05-10T20:56:26.689Z,98472.17
2019-05-10T20:58:55.173Z,98476.05
2019-05-10T21:01:23.666Z,98475.67
2019-05-10T21:03:52.137Z,98478.23
2019-05-10T21:06:20.628Z,98477.02
2019-05-10T21:08:49.095Z,98485.45
2019-05-10T21:11:17.681Z,98491.10
2019-05-10T21:13:46.144Z,98481.80
2019-05-10T21:16:14.641Z,98484.77
2019-05-10T21:18:43.107Z,98487.36
2019-05-10T21:21:11.592Z,98491.03
2019-05-10T21:23:40.060Z,98495.28
2019-05-10T21:26:08.558Z,98495.70
2019-05-10T21:28:37.045Z,98496.34
2019-05-10T21:31:05.531Z,98498.81
2019-05-10T21:33:34.005Z,98505.07
2019-05-10T21:36:02.580Z,98508.53
2019-05-10T21:38:33.446Z,98509.53
2019-05-10T21:41:01.286Z,98509.11
2019-05-10T21:43:29.746Z,98501.27
2019-05-10T21:45:58.242Z,98505.19
2019-05-10T21:48:26.715Z,98503.70
2019-05-10T21:50:55.226Z,98500.13
2019-05-10T21:53:23.704Z,98501.80
2019-05-10T21:55:52.204Z,98492.94
2019-05-10T21:58:20.680Z,98492.10
2019-05-10T22:00:52.375Z,98494.87
2019-05-10T22:03:20.833Z,98489.27
2019-05-10T22:05:49.393Z,98504.85
2019-05-10T22:08:17.869Z,98497.81
2019-05-10T22:10:46.336Z,98494.07
2019-05-10T22:13:14.831Z,98490.48
2019-05-10T22:15:43.375Z,98499.34
2019-05-10T22:18:11.875Z,98499.38
2019-05-10T22:20:40.320Z,98497.98
2019-05-10T22:23:08.812Z,98489.39
2019-05-10T22:25:37.282Z,98491.23
2019-05-10T22:28:05.775Z,98493.26
2019-05-10T22:30:34.248Z,98492.66
2019-05-10T22:33:02.741Z,98487.58
2019-05-10T22:35:31.278Z,98488.49
2019-05-10T22:37:59.848Z,98489.76
2019-05-10T22:40:28.319Z,98488.08
2019-05-10T22:42:56.815Z,98487.80
2019-05-10T22:45:25.284Z,98488.36
2019-05-10T22:47:53.793Z,98489.95
2019-05-10T22:50:22.263Z,98494.23
2019-05-10T22:52:50.758Z,98505.02
2019-05-10T22:55:19.228Z,98503.31
2019-05-10T22:57:47.713Z,98507.32
2019-05-10T23:00:16.516Z,98507.95
2019-05-10T23:02:45.007Z,98509.52
2019-05-10T23:05:13.553Z,98516.73
2019-05-10T23:07:42.051Z,98515.59
2019-05-10T23:10:11.163Z,98518.81
2019-05-10T23:12:39.659Z,98525.77
2019-05-10T23:15:08.205Z,98525.24
2019-05-10T23:17:36.687Z,98518.73
2019-05-10T23:20:05.492Z,98510.83
2019-05-10T23:22:33.989Z,98507.81
2019-05-10T23:25:02.465Z,98513.49
2019-05-10T23:27:30.962Z,98523.33
2019-05-10T23:29:59.439Z,98529.16
2019-05-10T23:32:27.920Z,98531.27
2019-05-10T23:34:56.385Z,98527.53
2019-05-10T23:37:24.875Z,98525.32
2019-05-10T23:39:53.346Z,98527.63
2019-05-10T23:42:21.844Z,98531.73
2019-05-10T23:44:50.316Z,98534.45
2019-05-10T23:47:18.811Z,98531.84
2019-05-10T23:49:47.292Z,98540.69
2019-05-10T23:52:15.783Z,98546.62
2019-05-10T23:54:44.258Z,98540.30
2019-05-10T23:57:12.719Z,98534.98
2019-05-10T23:59:41.222Z,98533.97
